Lindale, Ohio
Current Conditions -  °F | °C
As of 11:53 AM on Monday 22 Dec 2014 (Local Time) from KLUK Reporting Station
Clear Clear  
Wind Chill: 45°   Ceiling: Unl
Heat Index: 48°   Visibility: 10mi
Dew Point: 35°   Wind: 7mph
Humidity: 61%   Direction: 180°S
Pressure: 29.96"   Gusts: NA
Location:  39.0167°N, 84.2069°W
Report Text: KLUK 221653Z 18006KT 10SM CLR 09/02 A2996 RMK AO2 SLP149 T00890017
Loading
Personal Weather Stations






























Interactive Weather Map New forecast layout! Learn more

10-Day Weather Forecast

Advertisements
Track Severe Weather on mobile